sensor_id;sensor_type;location;lat;lon;timestamp;temperature;humidity
17639;DHT22;8938;53.546;9.954;2023-02-11T00:01:45;9.50;99.90
17639;DHT22;8938;53.546;9.954;2023-02-11T00:04:11;9.50;99.90
17639;DHT22;8938;53.546;9.954;2023-02-11T00:06:37;9.40;99.90
17639;DHT22;8938;53.546;9.954;2023-02-11T00:09:03;9.40;99.90
17639;DHT22;8938;53.546;9.954;2023-02-11T00:11:29;9.40;99.90
17639;DHT22;8938;53.546;9.954;2023-02-11T00:13:56;9.50;99.90
17639;DHT22;8938;53.546;9.954;2023-02-11T00:16:22;9.40;99.90
17639;DHT22;8938;53.546;9.954;2023-02-11T00:18:48;9.50;99.90
17639;DHT22;8938;53.546;9.954;2023-02-11T00:21:18;9.50;99.90
17639;DHT22;8938;53.546;9.954;2023-02-11T00:23:45;9.60;99.90
17639;DHT22;8938;53.546;9.954;2023-02-11T00:26:13;9.70;99.90
17639;DHT22;8938;53.546;9.954;2023-02-11T00:28:39;9.60;99.90
17639;DHT22;8938;53.546;9.954;2023-02-11T00:31:05;9.50;99.90
17639;DHT22;8938;53.546;9.954;2023-02-11T00:33:31;9.50;99.90
17639;DHT22;8938;53.546;9.954;2023-02-11T00:35:57;9.60;99.90
17639;DHT22;8938;53.546;9.954;2023-02-11T00:38:23;9.50;99.90
17639;DHT22;8938;53.546;9.954;2023-02-11T00:40:48;9.50;99.90
17639;DHT22;8938;53.546;9.954;2023-02-11T00:43:14;9.50;99.90
17639;DHT22;8938;53.546;9.954;2023-02-11T00:45:39;9.40;99.90
17639;DHT22;8938;53.546;9.954;2023-02-11T00:48:05;9.50;99.90
17639;DHT22;8938;53.546;9.954;2023-02-11T00:50:32;9.50;99.90
17639;DHT22;8938;53.546;9.954;2023-02-11T00:52:58;9.50;99.90
17639;DHT22;8938;53.546;9.954;2023-02-11T00:55:24;9.50;99.90
17639;DHT22;8938;53.546;9.954;2023-02-11T00:57:49;9.40;99.90
17639;DHT22;8938;53.546;9.954;2023-02-11T01:00:15;9.40;99.90
17639;DHT22;8938;53.546;9.954;2023-02-11T01:02:41;9.40;99.90
17639;DHT22;8938;53.546;9.954;2023-02-11T01:05:06;9.30;99.90
17639;DHT22;8938;53.546;9.954;2023-02-11T01:07:32;9.30;99.90
17639;DHT22;8938;53.546;9.954;2023-02-11T01:09:58;9.40;99.90
17639;DHT22;8938;53.546;9.954;2023-02-11T01:14:49;9.60;99.90
17639;DHT22;8938;53.546;9.954;2023-02-11T01:17:15;9.50;99.90
17639;DHT22;8938;53.546;9.954;2023-02-11T01:19:40;9.50;99.90
17639;DHT22;8938;53.546;9.954;2023-02-11T01:22:06;9.40;99.90
17639;DHT22;8938;53.546;9.954;2023-02-11T01:24:32;9.40;99.90
17639;DHT22;8938;53.546;9.954;2023-02-11T01:26:57;9.50;99.90
17639;DHT22;8938;53.546;9.954;2023-02-11T01:29:23;9.60;99.90
17639;DHT22;8938;53.546;9.954;2023-02-11T01:31:49;9.60;99.90
17639;DHT22;8938;53.546;9.954;2023-02-11T01:34:14;9.60;99.90
17639;DHT22;8938;53.546;9.954;2023-02-11T01:36:40;9.60;99.90
17639;DHT22;8938;53.546;9.954;2023-02-11T01:39:06;9.60;99.90
17639;DHT22;8938;53.546;9.954;2023-02-11T01:41:33;9.70;99.90
17639;DHT22;8938;53.546;9.954;2023-02-11T01:44:31;9.60;99.90
17639;DHT22;8938;53.546;9.954;2023-02-11T01:46:57;9.60;99.90
17639;DHT22;8938;53.546;9.954;2023-02-11T01:49:37;9.60;99.90
17639;DHT22;8938;53.546;9.954;2023-02-11T01:52:26;9.50;99.90
17639;DHT22;8938;53.546;9.954;2023-02-11T01:54:56;9.50;99.90
17639;DHT22;8938;53.546;9.954;2023-02-11T01:57:45;9.60;99.90
17639;DHT22;8938;53.546;9.954;2023-02-11T02:00:13;9.60;99.90
17639;DHT22;8938;53.546;9.954;2023-02-11T02:02:43;9.50;99.90
17639;DHT22;8938;53.546;9.954;2023-02-11T02:07:51;9.50;99.90
17639;DHT22;8938;53.546;9.954;2023-02-11T02:10:20;9.50;99.90
17639;DHT22;8938;53.546;9.954;2023-02-11T02:12:46;9.50;99.90
17639;DHT22;8938;53.546;9.954;2023-02-11T02:15:22;9.50;99.90
17639;DHT22;8938;53.546;9.954;2023-02-11T02:24:14;9.50;99.90
17639;DHT22;8938;53.546;9.954;2023-02-11T02:26:53;9.50;99.90
17639;DHT22;8938;53.546;9.954;2023-02-11T02:32:40;9.50;99.90
17639;DHT22;8938;53.546;9.954;2023-02-11T02:40:24;9.60;99.90
17639;DHT22;8938;53.546;9.954;2023-02-11T02:42:52;9.60;99.90
17639;DHT22;8938;53.546;9.954;2023-02-11T02:45:18;9.70;99.90
17639;DHT22;8938;53.546;9.954;2023-02-11T02:47:44;9.70;99.90
17639;DHT22;8938;53.546;9.954;2023-02-11T02:50:12;9.80;99.90
17639;DHT22;8938;53.546;9.954;2023-02-11T02:55:59;9.70;99.90
17639;DHT22;8938;53.546;9.954;2023-02-11T02:58:39;9.80;99.90
17639;DHT22;8938;53.546;9.954;2023-02-11T03:04:17;9.80;99.90
17639;DHT22;8938;53.546;9.954;2023-02-11T03:06:54;9.70;99.90
17639;DHT22;8938;53.546;9.954;2023-02-11T03:09:36;9.70;99.90
17639;DHT22;8938;53.546;9.954;2023-02-11T03:12:04;9.60;99.90
17639;DHT22;8938;53.546;9.954;2023-02-11T03:14:31;9.70;99.90
17639;DHT22;8938;53.546;9.954;2023-02-11T03:17:00;9.70;99.90
17639;DHT22;8938;53.546;9.954;2023-02-11T03:19:36;9.70;99.90
17639;DHT22;8938;53.546;9.954;2023-02-11T03:22:06;9.70;99.90
17639;DHT22;8938;53.546;9.954;2023-02-11T03:24:34;9.90;99.90
17639;DHT22;8938;53.546;9.954;2023-02-11T03:27:20;9.80;99.90
17639;DHT22;8938;53.546;9.954;2023-02-11T03:32:32;9.80;99.90
17639;DHT22;8938;53.546;9.954;2023-02-11T03:35:06;9.70;99.90
17639;DHT22;8938;53.546;9.954;2023-02-11T03:37:42;9.70;99.90
17639;DHT22;8938;53.546;9.954;2023-02-11T03:40:16;9.70;99.90
17639;DHT22;8938;53.546;9.954;2023-02-11T03:42:57;9.90;99.90
17639;DHT22;8938;53.546;9.954;2023-02-11T03:45:24;9.80;99.90
17639;DHT22;8938;53.546;9.954;2023-02-11T03:48:07;9.90;99.90
17639;DHT22;8938;53.546;9.954;2023-02-11T03:50:36;9.90;99.90
17639;DHT22;8938;53.546;9.954;2023-02-11T03:53:02;9.90;99.90
17639;DHT22;8938;53.546;9.954;2023-02-11T03:55:29;9.90;99.90
17639;DHT22;8938;53.546;9.954;2023-02-11T03:57:57;10.00;99.90
17639;DHT22;8938;53.546;9.954;2023-02-11T04:00:49;10.10;99.90
17639;DHT22;8938;53.546;9.954;2023-02-11T04:03:14;10.20;99.90
17639;DHT22;8938;53.546;9.954;2023-02-11T04:05:40;10.20;99.90
17639;DHT22;8938;53.546;9.954;2023-02-11T04:08:06;10.20;99.90
17639;DHT22;8938;53.546;9.954;2023-02-11T04:10:32;10.40;99.90
17639;DHT22;8938;53.546;9.954;2023-02-11T04:12:58;10.30;99.90
17639;DHT22;8938;53.546;9.954;2023-02-11T04:15:24;10.40;99.90
17639;DHT22;8938;53.546;9.954;2023-02-11T04:17:50;10.40;99.90
17639;DHT22;8938;53.546;9.954;2023-02-11T04:20:15;10.30;99.90
17639;DHT22;8938;53.546;9.954;2023-02-11T04:22:41;10.30;99.90
17639;DHT22;8938;53.546;9.954;2023-02-11T04:25:07;10.40;99.90
17639;DHT22;8938;53.546;9.954;2023-02-11T04:27:34;10.50;99.90
17639;DHT22;8938;53.546;9.954;2023-02-11T04:30:00;10.50;99.90
17639;DHT22;8938;53.546;9.954;2023-02-11T04:32:25;10.50;99.90
17639;DHT22;8938;53.546;9.954;2023-02-11T04:34:51;10.50;99.90
17639;DHT22;8938;53.546;9.954;2023-02-11T04:37:17;10.60;99.90
17639;DHT22;8938;53.546;9.954;2023-02-11T04:39:42;10.60;99.90
17639;DHT22;8938;53.546;9.954;2023-02-11T04:42:08;10.60;99.90
17639;DHT22;8938;53.546;9.954;2023-02-11T04:44:33;10.60;99.90
17639;DHT22;8938;53.546;9.954;2023-02-11T04:46:59;10.70;99.90
17639;DHT22;8938;53.546;9.954;2023-02-11T04:49:25;10.70;99.90
17639;DHT22;8938;53.546;9.954;2023-02-11T04:51:50;10.70;99.90
17639;DHT22;8938;53.546;9.954;2023-02-11T04:54:16;10.70;99.90
17639;DHT22;8938;53.546;9.954;2023-02-11T04:56:42;10.60;99.90
17639;DHT22;8938;53.546;9.954;2023-02-11T04:59:07;10.60;99.90
17639;DHT22;8938;53.546;9.954;2023-02-11T05:01:33;10.60;99.90
17639;DHT22;8938;53.546;9.954;2023-02-11T05:03:59;10.60;99.90
17639;DHT22;8938;53.546;9.954;2023-02-11T05:06:24;10.60;99.90
17639;DHT22;8938;53.546;9.954;2023-02-11T05:08:50;10.60;99.90
17639;DHT22;8938;53.546;9.954;2023-02-11T05:11:21;10.60;99.90
17639;DHT22;8938;53.546;9.954;2023-02-11T05:13:47;10.60;99.90
17639;DHT22;8938;53.546;9.954;2023-02-11T05:16:13;10.70;99.90
17639;DHT22;8938;53.546;9.954;2023-02-11T05:18:41;10.70;99.90
17639;DHT22;8938;53.546;9.954;2023-02-11T05:21:09;10.70;99.90
17639;DHT22;8938;53.546;9.954;2023-02-11T05:23:35;10.70;99.90
17639;DHT22;8938;53.546;9.954;2023-02-11T05:26:01;10.70;99.90
17639;DHT22;8938;53.546;9.954;2023-02-11T05:28:27;10.70;99.90
17639;DHT22;8938;53.546;9.954;2023-02-11T05:30:52;10.70;99.90
17639;DHT22;8938;53.546;9.954;2023-02-11T05:33:18;10.60;99.90
17639;DHT22;8938;53.546;9.954;2023-02-11T05:35:44;10.50;99.90
17639;DHT22;8938;53.546;9.954;2023-02-11T05:38:09;10.60;99.90
17639;DHT22;8938;53.546;9.954;2023-02-11T05:40:35;10.50;99.90
17639;DHT22;8938;53.546;9.954;2023-02-11T05:43:01;10.50;99.90
17639;DHT22;8938;53.546;9.954;2023-02-11T05:45:26;10.60;99.90
17639;DHT22;8938;53.546;9.954;2023-02-11T05:47:52;10.50;99.90
17639;DHT22;8938;53.546;9.954;2023-02-11T05:50:18;10.50;99.90
17639;DHT22;8938;53.546;9.954;2023-02-11T05:52:43;10.50;99.90
17639;DHT22;8938;53.546;9.954;2023-02-11T05:55:09;10.50;99.90
17639;DHT22;8938;53.546;9.954;2023-02-11T05:57:34;10.40;99.90
17639;DHT22;8938;53.546;9.954;2023-02-11T06:00:00;10.50;99.90
17639;DHT22;8938;53.546;9.954;2023-02-11T06:02:26;10.40;99.90
17639;DHT22;8938;53.546;9.954;2023-02-11T06:04:51;10.50;99.90
17639;DHT22;8938;53.546;9.954;2023-02-11T06:07:17;10.50;99.90
17639;DHT22;8938;53.546;9.954;2023-02-11T06:09:44;10.50;99.90
17639;DHT22;8938;53.546;9.954;2023-02-11T06:12:09;10.60;99.90
17639;DHT22;8938;53.546;9.954;2023-02-11T06:14:35;10.60;99.90
17639;DHT22;8938;53.546;9.954;2023-02-11T06:17:01;10.70;99.90
17639;DHT22;8938;53.546;9.954;2023-02-11T06:19:26;10.60;99.90
17639;DHT22;8938;53.546;9.954;2023-02-11T06:21:52;10.60;99.90
17639;DHT22;8938;53.546;9.954;2023-02-11T06:24:17;10.60;99.90
17639;DHT22;8938;53.546;9.954;2023-02-11T06:26:43;10.60;99.90
17639;DHT22;8938;53.546;9.954;2023-02-11T06:29:08;10.60;99.90
17639;DHT22;8938;53.546;9.954;2023-02-11T06:31:36;10.60;99.90
17639;DHT22;8938;53.546;9.954;2023-02-11T06:34:01;10.70;99.90
17639;DHT22;8938;53.546;9.954;2023-02-11T06:36:27;10.70;99.90
17639;DHT22;8938;53.546;9.954;2023-02-11T06:38:52;10.80;99.90
17639;DHT22;8938;53.546;9.954;2023-02-11T06:41:18;10.80;99.90
17639;DHT22;8938;53.546;9.954;2023-02-11T06:43:45;10.70;99.90
17639;DHT22;8938;53.546;9.954;2023-02-11T06:46:11;10.70;99.90
17639;DHT22;8938;53.546;9.954;2023-02-11T06:48:37;10.70;99.90
17639;DHT22;8938;53.546;9.954;2023-02-11T06:51:07;10.80;99.90
17639;DHT22;8938;53.546;9.954;2023-02-11T06:53:35;10.80;99.90
17639;DHT22;8938;53.546;9.954;2023-02-11T06:56:03;10.70;99.90
17639;DHT22;8938;53.546;9.954;2023-02-11T06:58:29;10.80;99.90
17639;DHT22;8938;53.546;9.954;2023-02-11T07:00:55;10.80;99.90
17639;DHT22;8938;53.546;9.954;2023-02-11T07:03:20;10.80;99.90
17639;DHT22;8938;53.546;9.954;2023-02-11T07:05:46;10.80;99.90
17639;DHT22;8938;53.546;9.954;2023-02-11T07:08:11;10.80;99.90
17639;DHT22;8938;53.546;9.954;2023-02-11T07:10:37;10.80;99.90
17639;DHT22;8938;53.546;9.954;2023-02-11T07:13:02;10.80;99.90
17639;DHT22;8938;53.546;9.954;2023-02-11T07:15:28;10.80;99.90
17639;DHT22;8938;53.546;9.954;2023-02-11T07:17:53;10.80;99.90
17639;DHT22;8938;53.546;9.954;2023-02-11T07:20:19;10.80;99.90
17639;DHT22;8938;53.546;9.954;2023-02-11T07:22:44;10.70;99.90
17639;DHT22;8938;53.546;9.954;2023-02-11T07:25:10;10.70;99.90
17639;DHT22;8938;53.546;9.954;2023-02-11T07:27:35;10.70;99.90
17639;DHT22;8938;53.546;9.954;2023-02-11T07:30:01;10.70;99.90
17639;DHT22;8938;53.546;9.954;2023-02-11T07:32:26;10.80;99.90
17639;DHT22;8938;53.546;9.954;2023-02-11T07:34:53;10.80;99.90
17639;DHT22;8938;53.546;9.954;2023-02-11T07:37:19;10.80;99.90
17639;DHT22;8938;53.546;9.954;2023-02-11T07:39:44;10.80;99.90
17639;DHT22;8938;53.546;9.954;2023-02-11T07:42:10;10.90;99.90
17639;DHT22;8938;53.546;9.954;2023-02-11T07:44:35;10.90;99.90
17639;DHT22;8938;53.546;9.954;2023-02-11T07:47:01;10.90;99.90
17639;DHT22;8938;53.546;9.954;2023-02-11T07:49:27;10.80;99.90
17639;DHT22;8938;53.546;9.954;2023-02-11T07:51:53;10.80;99.90
17639;DHT22;8938;53.546;9.954;2023-02-11T07:54:18;10.90;99.90
17639;DHT22;8938;53.546;9.954;2023-02-11T07:56:44;10.90;99.90
17639;DHT22;8938;53.546;9.954;2023-02-11T07:59:10;10.90;99.90
17639;DHT22;8938;53.546;9.954;2023-02-11T08:01:36;11.00;99.90
17639;DHT22;8938;53.546;9.954;2023-02-11T08:04:02;11.00;99.90
17639;DHT22;8938;53.546;9.954;2023-02-11T08:06:31;11.10;99.90
17639;DHT22;8938;53.546;9.954;2023-02-11T08:08:57;11.00;99.90
17639;DHT22;8938;53.546;9.954;2023-02-11T08:11:25;11.10;99.90
17639;DHT22;8938;53.546;9.954;2023-02-11T08:13:53;11.00;99.90
17639;DHT22;8938;53.546;9.954;2023-02-11T08:16:28;11.00;99.90
17639;DHT22;8938;53.546;9.954;2023-02-11T08:19:00;11.00;99.90
17639;DHT22;8938;53.546;9.954;2023-02-11T08:21:26;11.00;99.90
17639;DHT22;8938;53.546;9.954;2023-02-11T08:23:52;10.90;99.90
17639;DHT22;8938;53.546;9.954;2023-02-11T08:26:24;10.90;99.90
17639;DHT22;8938;53.546;9.954;2023-02-11T08:28:52;10.80;99.90
17639;DHT22;8938;53.546;9.954;2023-02-11T08:31:20;10.80;99.90
17639;DHT22;8938;53.546;9.954;2023-02-11T08:33:46;10.80;99.90
17639;DHT22;8938;53.546;9.954;2023-02-11T08:36:17;10.80;99.90
17639;DHT22;8938;53.546;9.954;2023-02-11T08:38:43;10.80;99.90
17639;DHT22;8938;53.546;9.954;2023-02-11T08:41:09;10.80;99.90
17639;DHT22;8938;53.546;9.954;2023-02-11T08:43:36;10.90;99.90
17639;DHT22;8938;53.546;9.954;2023-02-11T08:46:06;10.90;99.90
17639;DHT22;8938;53.546;9.954;2023-02-11T08:48:32;10.90;99.90
17639;DHT22;8938;53.546;9.954;2023-02-11T08:50:58;10.90;99.90
17639;DHT22;8938;53.546;9.954;2023-02-11T08:53:25;11.00;99.90
17639;DHT22;8938;53.546;9.954;2023-02-11T08:55:54;10.90;99.90
17639;DHT22;8938;53.546;9.954;2023-02-11T08:58:22;11.00;99.90
17639;DHT22;8938;53.546;9.954;2023-02-11T09:00:48;10.90;99.90
17639;DHT22;8938;53.546;9.954;2023-02-11T09:03:14;10.90;99.90
17639;DHT22;8938;53.546;9.954;2023-02-11T09:05:45;11.00;99.90
17639;DHT22;8938;53.546;9.954;2023-02-11T09:08:12;10.90;99.90
17639;DHT22;8938;53.546;9.954;2023-02-11T09:10:38;11.00;99.90
17639;DHT22;8938;53.546;9.954;2023-02-11T09:13:04;10.90;99.90
17639;DHT22;8938;53.546;9.954;2023-02-11T09:15:29;11.00;99.90
17639;DHT22;8938;53.546;9.954;2023-02-11T09:17:55;11.00;99.90
17639;DHT22;8938;53.546;9.954;2023-02-11T09:20:21;11.00;99.90
17639;DHT22;8938;53.546;9.954;2023-02-11T09:22:47;11.10;99.90
17639;DHT22;8938;53.546;9.954;2023-02-11T09:25:13;11.10;99.90
17639;DHT22;8938;53.546;9.954;2023-02-11T09:27:38;11.20;99.90
17639;DHT22;8938;53.546;9.954;2023-02-11T09:30:04;11.20;99.90
17639;DHT22;8938;53.546;9.954;2023-02-11T09:32:30;11.20;99.90
17639;DHT22;8938;53.546;9.954;2023-02-11T09:34:55;11.30;99.90
17639;DHT22;8938;53.546;9.954;2023-02-11T09:37:21;11.20;99.90
17639;DHT22;8938;53.546;9.954;2023-02-11T09:39:47;11.30;99.90
17639;DHT22;8938;53.546;9.954;2023-02-11T09:42:38;11.10;99.90
17639;DHT22;8938;53.546;9.954;2023-02-11T09:45:11;11.10;99.90
17639;DHT22;8938;53.546;9.954;2023-02-11T09:47:59;11.10;99.90
17639;DHT22;8938;53.546;9.954;2023-02-11T09:50:35;11.20;99.90
17639;DHT22;8938;53.546;9.954;2023-02-11T09:53:23;11.30;99.90
17639;DHT22;8938;53.546;9.954;2023-02-11T09:55:55;11.30;99.90
17639;DHT22;8938;53.546;9.954;2023-02-11T09:58:30;11.30;99.90
17639;DHT22;8938;53.546;9.954;2023-02-11T10:01:15;11.30;99.90
17639;DHT22;8938;53.546;9.954;2023-02-11T10:06:34;11.30;99.90
17639;DHT22;8938;53.546;9.954;2023-02-11T10:09:16;11.40;99.90
17639;DHT22;8938;53.546;9.954;2023-02-11T10:14:52;11.40;99.90
17639;DHT22;8938;53.546;9.954;2023-02-11T10:20:30;11.40;99.90
17639;DHT22;8938;53.546;9.954;2023-02-11T10:22:59;11.30;99.90
17639;DHT22;8938;53.546;9.954;2023-02-11T10:25:34;11.40;99.90
17639;DHT22;8938;53.546;9.954;2023-02-11T10:28:13;11.40;99.90
17639;DHT22;8938;53.546;9.954;2023-02-11T10:33:48;11.50;99.90
17639;DHT22;8938;53.546;9.954;2023-02-11T10:36:16;11.50;99.90
17639;DHT22;8938;53.546;9.954;2023-02-11T10:38:43;11.50;99.90
17639;DHT22;8938;53.546;9.954;2023-02-11T10:41:12;11.40;99.90
17639;DHT22;8938;53.546;9.954;2023-02-11T10:43:41;11.40;99.90
17639;DHT22;8938;53.546;9.954;2023-02-11T10:46:18;11.30;99.90
17639;DHT22;8938;53.546;9.954;2023-02-11T10:48:48;11.20;99.90
17639;DHT22;8938;53.546;9.954;2023-02-11T10:51:30;11.20;99.90
17639;DHT22;8938;53.546;9.954;2023-02-11T10:56:35;11.20;99.90
17639;DHT22;8938;53.546;9.954;2023-02-11T10:59:04;11.20;99.90
17639;DHT22;8938;53.546;9.954;2023-02-11T11:01:53;11.20;99.90
17639;DHT22;8938;53.546;9.954;2023-02-11T11:04:43;11.30;99.90
17639;DHT22;8938;53.546;9.954;2023-02-11T11:07:24;11.30;99.90
17639;DHT22;8938;53.546;9.954;2023-02-11T11:10:28;11.30;99.90
17639;DHT22;8938;53.546;9.954;2023-02-11T11:12:54;11.40;99.90
17639;DHT22;8938;53.546;9.954;2023-02-11T11:15:25;11.40;99.90
17639;DHT22;8938;53.546;9.954;2023-02-11T11:18:18;11.40;99.90
17639;DHT22;8938;53.546;9.954;2023-02-11T11:20:59;11.30;99.90
17639;DHT22;8938;53.546;9.954;2023-02-11T11:23:26;11.20;99.90
17639;DHT22;8938;53.546;9.954;2023-02-11T11:26:10;11.20;99.90
17639;DHT22;8938;53.546;9.954;2023-02-11T11:28:52;11.10;99.90
17639;DHT22;8938;53.546;9.954;2023-02-11T11:31:35;11.20;99.90
17639;DHT22;8938;53.546;9.954;2023-02-11T11:34:31;11.30;99.90
17639;DHT22;8938;53.546;9.954;2023-02-11T11:36:59;11.30;99.90
17639;DHT22;8938;53.546;9.954;2023-02-11T11:39:31;11.30;99.90
17639;DHT22;8938;53.546;9.954;2023-02-11T11:42:03;11.30;99.90
17639;DHT22;8938;53.546;9.954;2023-02-11T11:44:34;11.40;99.90
17639;DHT22;8938;53.546;9.954;2023-02-11T11:47:26;11.50;99.90
17639;DHT22;8938;53.546;9.954;2023-02-11T11:55:47;11.40;99.90
17639;DHT22;8938;53.546;9.954;2023-02-11T11:58:18;11.30;99.90
17639;DHT22;8938;53.546;9.954;2023-02-11T12:06:55;11.40;99.90
17639;DHT22;8938;53.546;9.954;2023-02-11T12:14:40;11.50;99.90
17639;DHT22;8938;53.546;9.954;2023-02-11T12:17:36;11.40;99.90
17639;DHT22;8938;53.546;9.954;2023-02-11T12:23:11;11.50;99.90
17639;DHT22;8938;53.546;9.954;2023-02-11T12:31:15;11.40;99.90
17639;DHT22;8938;53.546;9.954;2023-02-11T12:34:09;11.40;99.90
17639;DHT22;8938;53.546;9.954;2023-02-11T12:37:00;11.40;99.90
17639;DHT22;8938;53.546;9.954;2023-02-11T12:39:41;11.30;99.90
17639;DHT22;8938;53.546;9.954;2023-02-11T12:55:43;11.60;99.90
17639;DHT22;8938;53.546;9.954;2023-02-11T12:58:15;11.70;99.90
17639;DHT22;8938;53.546;9.954;2023-02-11T13:01:09;11.80;99.90
17639;DHT22;8938;53.546;9.954;2023-02-11T13:03:38;11.80;99.90
17639;DHT22;8938;53.546;9.954;2023-02-11T13:06:08;11.80;99.90
17639;DHT22;8938;53.546;9.954;2023-02-11T13:08:43;11.90;99.90
17639;DHT22;8938;53.546;9.954;2023-02-11T13:11:14;12.00;99.90
17639;DHT22;8938;53.546;9.954;2023-02-11T13:24:40;12.10;99.90
17639;DHT22;8938;53.546;9.954;2023-02-11T13:27:35;12.00;99.90
17639;DHT22;8938;53.546;9.954;2023-02-11T13:36:09;11.80;99.90
17639;DHT22;8938;53.546;9.954;2023-02-11T13:38:32;11.70;99.90
17639;DHT22;8938;53.546;9.954;2023-02-11T13:41:16;11.70;99.90
17639;DHT22;8938;53.546;9.954;2023-02-11T13:43:42;11.80;99.90
17639;DHT22;8938;53.546;9.954;2023-02-11T13:46:13;11.80;99.90
17639;DHT22;8938;53.546;9.954;2023-02-11T13:48:46;11.70;99.90
17639;DHT22;8938;53.546;9.954;2023-02-11T13:51:16;11.80;99.90
17639;DHT22;8938;53.546;9.954;2023-02-11T13:53:55;12.00;99.90
17639;DHT22;8938;53.546;9.954;2023-02-11T13:56:32;12.00;99.90
17639;DHT22;8938;53.546;9.954;2023-02-11T13:59:01;12.00;99.90
17639;DHT22;8938;53.546;9.954;2023-02-11T14:04:22;11.90;99.90
17639;DHT22;8938;53.546;9.954;2023-02-11T14:07:31;11.90;99.90
17639;DHT22;8938;53.546;9.954;2023-02-11T14:13:26;11.90;99.90
17639;DHT22;8938;53.546;9.954;2023-02-11T14:24:39;11.70;99.90
17639;DHT22;8938;53.546;9.954;2023-02-11T14:26:48;11.70;99.90
17639;DHT22;8938;53.546;9.954;2023-02-11T14:31:53;11.70;99.90
17639;DHT22;8938;53.546;9.954;2023-02-11T14:38:07;11.80;99.90
17639;DHT22;8938;53.546;9.954;2023-02-11T14:43:44;12.10;99.90
17639;DHT22;8938;53.546;9.954;2023-02-11T14:46:14;12.10;99.90
17639;DHT22;8938;53.546;9.954;2023-02-11T14:48:45;12.10;99.90
17639;DHT22;8938;53.546;9.954;2023-02-11T14:51:33;12.10;99.90
17639;DHT22;8938;53.546;9.954;2023-02-11T14:54:10;12.10;99.90
17639;DHT22;8938;53.546;9.954;2023-02-11T14:56:39;11.90;99.90
17639;DHT22;8938;53.546;9.954;2023-02-11T14:59:17;11.80;99.90
17639;DHT22;8938;53.546;9.954;2023-02-11T15:01:48;11.80;99.90
17639;DHT22;8938;53.546;9.954;2023-02-11T15:04:25;11.90;99.90
17639;DHT22;8938;53.546;9.954;2023-02-11T15:06:52;11.90;99.90
17639;DHT22;8938;53.546;9.954;2023-02-11T15:09:25;12.00;99.90
17639;DHT22;8938;53.546;9.954;2023-02-11T15:11:54;12.00;99.90
17639;DHT22;8938;53.546;9.954;2023-02-11T15:14:32;11.90;99.90
17639;DHT22;8938;53.546;9.954;2023-02-11T15:17:00;11.90;99.90
17639;DHT22;8938;53.546;9.954;2023-02-11T15:19:38;11.90;99.90
17639;DHT22;8938;53.546;9.954;2023-02-11T15:22:14;11.80;99.90
17639;DHT22;8938;53.546;9.954;2023-02-11T15:25:11;11.90;99.90
17639;DHT22;8938;53.546;9.954;2023-02-11T15:27:49;11.90;99.90
17639;DHT22;8938;53.546;9.954;2023-02-11T15:32:47;11.80;99.90
17639;DHT22;8938;53.546;9.954;2023-02-11T15:35:14;11.80;99.90
17639;DHT22;8938;53.546;9.954;2023-02-11T15:37:40;11.70;99.90
17639;DHT22;8938;53.546;9.954;2023-02-11T15:40:14;11.60;99.90
17639;DHT22;8938;53.546;9.954;2023-02-11T15:42:55;11.70;99.90
17639;DHT22;8938;53.546;9.954;2023-02-11T15:45:37;11.60;99.90
17639;DHT22;8938;53.546;9.954;2023-02-11T15:48:20;11.50;99.90
17639;DHT22;8938;53.546;9.954;2023-02-11T15:50:55;11.40;99.90
17639;DHT22;8938;53.546;9.954;2023-02-11T15:53:32;11.40;99.90
17639;DHT22;8938;53.546;9.954;2023-02-11T15:58:40;11.50;99.90
17639;DHT22;8938;53.546;9.954;2023-02-11T16:01:07;11.60;99.90
17639;DHT22;8938;53.546;9.954;2023-02-11T16:03:34;11.50;99.90
17639;DHT22;8938;53.546;9.954;2023-02-11T16:06:22;11.40;99.90
17639;DHT22;8938;53.546;9.954;2023-02-11T16:11:26;11.50;99.90
17639;DHT22;8938;53.546;9.954;2023-02-11T16:13:54;11.50;99.90
17639;DHT22;8938;53.546;9.954;2023-02-11T16:16:25;11.50;99.90
17639;DHT22;8938;53.546;9.954;2023-02-11T16:18:54;11.40;99.90
17639;DHT22;8938;53.546;9.954;2023-02-11T16:21:26;11.40;99.90
17639;DHT22;8938;53.546;9.954;2023-02-11T16:23:56;11.40;99.90
17639;DHT22;8938;53.546;9.954;2023-02-11T16:26:30;11.40;99.90
17639;DHT22;8938;53.546;9.954;2023-02-11T16:29:23;11.50;99.90
17639;DHT22;8938;53.546;9.954;2023-02-11T16:31:48;11.40;99.90
17639;DHT22;8938;53.546;9.954;2023-02-11T16:34:17;11.40;99.90
17639;DHT22;8938;53.546;9.954;2023-02-11T16:36:43;11.40;99.90
17639;DHT22;8938;53.546;9.954;2023-02-11T16:39:09;11.50;99.90
17639;DHT22;8938;53.546;9.954;2023-02-11T16:41:35;11.60;99.90
17639;DHT22;8938;53.546;9.954;2023-02-11T16:44:00;11.70;99.90
17639;DHT22;8938;53.546;9.954;2023-02-11T16:46:26;11.70;99.90
17639;DHT22;8938;53.546;9.954;2023-02-11T16:48:53;11.70;99.90
17639;DHT22;8938;53.546;9.954;2023-02-11T16:51:19;11.70;99.90
17639;DHT22;8938;53.546;9.954;2023-02-11T16:53:45;11.70;99.90
17639;DHT22;8938;53.546;9.954;2023-02-11T16:56:13;11.60;99.90
17639;DHT22;8938;53.546;9.954;2023-02-11T16:58:40;11.60;99.90
17639;DHT22;8938;53.546;9.954;2023-02-11T17:01:07;11.60;99.90
17639;DHT22;8938;53.546;9.954;2023-02-11T17:03:33;11.60;99.90
17639;DHT22;8938;53.546;9.954;2023-02-11T17:06:04;11.50;99.90
17639;DHT22;8938;53.546;9.954;2023-02-11T17:08:31;11.60;99.90
17639;DHT22;8938;53.546;9.954;2023-02-11T17:10:57;11.60;99.90
17639;DHT22;8938;53.546;9.954;2023-02-11T17:13:22;11.60;99.90
17639;DHT22;8938;53.546;9.954;2023-02-11T17:15:48;11.60;99.90
17639;DHT22;8938;53.546;9.954;2023-02-11T17:18:13;11.50;99.90
17639;DHT22;8938;53.546;9.954;2023-02-11T17:20:40;11.50;99.90
17639;DHT22;8938;53.546;9.954;2023-02-11T17:23:05;11.40;99.90
17639;DHT22;8938;53.546;9.954;2023-02-11T17:25:31;11.40;99.90
17639;DHT22;8938;53.546;9.954;2023-02-11T17:27:57;11.60;99.90
17639;DHT22;8938;53.546;9.954;2023-02-11T17:30:22;11.70;99.90
17639;DHT22;8938;53.546;9.954;2023-02-11T17:32:48;11.60;99.90
17639;DHT22;8938;53.546;9.954;2023-02-11T17:35:14;11.60;99.90
17639;DHT22;8938;53.546;9.954;2023-02-11T17:37:39;11.50;99.90
17639;DHT22;8938;53.546;9.954;2023-02-11T17:40:06;11.50;99.90
17639;DHT22;8938;53.546;9.954;2023-02-11T17:42:32;11.60;99.90
17639;DHT22;8938;53.546;9.954;2023-02-11T17:44:58;11.50;99.90
17639;DHT22;8938;53.546;9.954;2023-02-11T17:47:23;11.60;99.90
17639;DHT22;8938;53.546;9.954;2023-02-11T17:49:49;11.60;99.90
17639;DHT22;8938;53.546;9.954;2023-02-11T17:52:14;11.60;99.90
17639;DHT22;8938;53.546;9.954;2023-02-11T17:54:41;11.60;99.90
17639;DHT22;8938;53.546;9.954;2023-02-11T17:57:07;11.60;99.90
17639;DHT22;8938;53.546;9.954;2023-02-11T17:59:32;11.60;99.90
17639;DHT22;8938;53.546;9.954;2023-02-11T18:02:02;11.50;99.90
17639;DHT22;8938;53.546;9.954;2023-02-11T18:04:28;11.50;99.90
17639;DHT22;8938;53.546;9.954;2023-02-11T18:06:54;11.50;99.90
17639;DHT22;8938;53.546;9.954;2023-02-11T18:09:19;11.60;99.90
17639;DHT22;8938;53.546;9.954;2023-02-11T18:11:45;11.50;99.90
17639;DHT22;8938;53.546;9.954;2023-02-11T18:14:11;11.40;99.90
17639;DHT22;8938;53.546;9.954;2023-02-11T18:16:37;11.40;99.90
17639;DHT22;8938;53.546;9.954;2023-02-11T18:19:04;11.40;99.90